createdAt,value
2018-04-26T00:00:59.437Z,8.44
2018-04-26T00:03:25.340Z,8.62
2018-04-26T00:05:51.220Z,8.59
2018-04-26T00:08:17.258Z,8.62
2018-04-26T00:10:43.217Z,8.75
2018-04-26T00:13:09.110Z,8.73
2018-04-26T00:15:35.015Z,8.71
2018-04-26T00:18:01.229Z,8.63
2018-04-26T00:20:27.292Z,8.55
2018-04-26T00:22:53.171Z,8.44
2018-04-26T00:25:19.147Z,8.48
2018-04-26T00:27:45.107Z,8.42
2018-04-26T00:30:10.979Z,8.54
2018-04-26T00:32:37.060Z,8.47
2018-04-26T00:35:02.982Z,8.42
2018-04-26T00:37:28.888Z,8.34
2018-04-26T00:39:54.852Z,8.25
2018-04-26T00:42:20.737Z,8.23
2018-04-26T00:44:46.752Z,8.14
2018-04-26T00:47:12.959Z,8.08
2018-04-26T00:49:38.865Z,8.00
2018-04-26T00:52:04.750Z,7.94
2018-04-26T00:54:30.704Z,7.86
2018-04-26T00:56:56.752Z,7.78
2018-04-26T00:59:22.660Z,7.75
2018-04-26T01:01:48.575Z,7.65
2018-04-26T01:04:14.500Z,7.56
2018-04-26T01:06:40.380Z,7.48
2018-04-26T01:09:06.464Z,7.42
2018-04-26T01:11:32.353Z,7.39
2018-04-26T01:13:58.288Z,7.30
2018-04-26T01:16:24.384Z,7.22
2018-04-26T01:18:50.275Z,7.18
2018-04-26T01:21:16.337Z,7.13
2018-04-26T01:23:42.254Z,7.09
2018-04-26T01:26:08.143Z,7.06
2018-04-26T01:28:34.023Z,6.99
2018-04-26T01:31:00.040Z,6.91
2018-04-26T01:33:26.108Z,6.87
2018-04-26T01:35:51.982Z,6.78
2018-04-26T01:38:17.887Z,6.76
2018-04-26T01:40:43.781Z,6.69
2018-04-26T01:43:09.667Z,6.61
2018-04-26T01:45:35.720Z,6.51
2018-04-26T01:48:01.641Z,6.49
2018-04-26T01:50:27.538Z,6.48
2018-04-26T01:52:53.748Z,6.48
2018-04-26T01:55:19.628Z,6.41
2018-04-26T01:57:45.639Z,6.45
2018-04-26T02:00:11.569Z,6.35
2018-04-26T02:02:37.452Z,6.33
2018-04-26T02:05:03.365Z,6.24
2018-04-26T02:07:29.309Z,6.26
2018-04-26T02:09:56.135Z,6.16
2018-04-26T02:12:22.024Z,6.11
2018-04-26T02:14:48.014Z,6.11
2018-04-26T02:17:13.891Z,6.10
2018-04-26T02:19:39.793Z,6.08
2018-04-26T02:22:06.260Z,6.11
2018-04-26T02:24:32.139Z,6.02
2018-04-26T02:26:58.040Z,5.99
2018-04-26T02:29:23.985Z,5.99
2018-04-26T02:31:49.865Z,6.07
2018-04-26T02:34:15.897Z,6.02
2018-04-26T02:36:41.842Z,6.00
2018-04-26T02:39:07.722Z,6.01
2018-04-26T02:41:33.636Z,6.01
2018-04-26T02:43:59.609Z,6.08
2018-04-26T02:46:25.642Z,6.11
2018-04-26T02:48:51.541Z,6.23
2018-04-26T02:51:17.475Z,6.31
2018-04-26T02:53:43.354Z,6.35
2018-04-26T02:56:09.222Z,6.42
2018-04-26T02:58:35.292Z,6.48
2018-04-26T03:01:02.225Z,6.52
2018-04-26T03:03:28.125Z,6.52
2018-04-26T03:05:56.978Z,6.59
2018-04-26T03:08:22.939Z,6.51
2018-04-26T03:10:48.903Z,6.52
2018-04-26T03:13:14.849Z,6.49
2018-04-26T03:15:40.711Z,6.54
2018-04-26T03:18:06.615Z,6.62
2018-04-26T03:20:32.549Z,6.62
2018-04-26T03:22:58.574Z,6.63
2018-04-26T03:25:24.483Z,6.59
2018-04-26T03:27:51.136Z,6.61
2018-04-26T03:30:17.011Z,6.60
2018-04-26T03:32:42.871Z,6.51
2018-04-26T03:35:08.915Z,6.48
2018-04-26T03:37:34.802Z,6.45
2018-04-26T03:40:00.678Z,6.47
2018-04-26T03:42:26.588Z,6.39
2018-04-26T03:44:52.495Z,6.32
2018-04-26T03:47:18.543Z,6.32
2018-04-26T03:49:44.470Z,6.24
2018-04-26T03:52:10.376Z,6.24
2018-04-26T03:54:36.285Z,6.16
2018-04-26T03:57:02.209Z,6.13
2018-04-26T03:59:28.235Z,6.13
2018-04-26T04:02:06.445Z,6.08
2018-04-26T04:04:44.834Z,6.15
2018-04-26T04:07:10.757Z,6.16
2018-04-26T04:09:36.812Z,6.15
2018-04-26T04:12:02.713Z,6.30
2018-04-26T04:14:28.661Z,6.34
2018-04-26T04:16:54.604Z,6.51
2018-04-26T04:19:20.573Z,6.68
2018-04-26T04:21:46.648Z,6.88
2018-04-26T04:24:12.527Z,6.96
2018-04-26T04:26:38.419Z,7.09
2018-04-26T04:29:04.344Z,7.14
2018-04-26T04:31:30.267Z,7.24
2018-04-26T04:33:56.361Z,7.36
2018-04-26T04:36:22.264Z,7.44
2018-04-26T04:38:48.152Z,7.61
2018-04-26T04:41:14.014Z,7.69
2018-04-26T04:43:39.943Z,7.82
2018-04-26T04:46:05.947Z,7.90
2018-04-26T04:48:31.824Z,7.98
2018-04-26T04:50:57.730Z,7.99
2018-04-26T04:53:23.628Z,8.07
2018-04-26T04:55:49.500Z,8.15
2018-04-26T04:58:15.564Z,8.24
2018-04-26T05:00:41.453Z,8.28
2018-04-26T05:03:07.339Z,8.30
2018-04-26T05:05:33.254Z,8.28
2018-04-26T05:07:59.155Z,8.22
2018-04-26T05:10:25.179Z,8.23
2018-04-26T05:12:51.115Z,8.40
2018-04-26T05:15:16.988Z,8.55
2018-04-26T05:17:42.864Z,8.62
2018-04-26T05:20:08.950Z,8.75
2018-04-26T05:22:34.947Z,8.85
2018-04-26T05:25:00.799Z,8.92
2018-04-26T05:27:27.000Z,9.04
2018-04-26T05:29:52.896Z,9.04
2018-04-26T05:32:18.776Z,8.97
2018-04-26T05:34:44.864Z,8.92
2018-04-26T05:37:10.713Z,8.75
2018-04-26T05:39:36.612Z,8.69
2018-04-26T05:42:02.616Z,8.55
2018-04-26T05:44:28.502Z,8.46
2018-04-26T05:46:54.567Z,8.38
2018-04-26T05:49:20.475Z,8.42
2018-04-26T05:51:46.342Z,8.44
2018-04-26T05:54:12.221Z,8.49
2018-04-26T05:56:38.136Z,8.49
2018-04-26T05:59:04.168Z,8.54
2018-04-26T06:01:30.057Z,8.51
2018-04-26T06:03:55.955Z,8.53
2018-04-26T06:06:21.825Z,8.62
2018-04-26T06:08:47.698Z,8.55
2018-04-26T06:11:13.732Z,8.61
2018-04-26T06:13:39.668Z,8.65
2018-04-26T06:16:05.514Z,8.63
2018-04-26T06:18:31.476Z,8.68
2018-04-26T06:20:57.340Z,8.75
2018-04-26T06:23:23.360Z,8.73
2018-04-26T06:25:49.576Z,8.71
2018-04-26T06:28:15.441Z,8.68
2018-04-26T06:30:41.346Z,8.72
2018-04-26T06:33:14.989Z,8.72
2018-04-26T06:35:41.027Z,8.75
2018-04-26T06:38:06.949Z,8.76
2018-04-26T06:40:32.904Z,8.82
2018-04-26T06:42:58.801Z,8.84
2018-04-26T06:45:24.681Z,8.89
2018-04-26T06:47:50.842Z,9.03
2018-04-26T06:50:16.648Z,9.11
2018-04-26T06:52:42.567Z,9.28
2018-04-26T06:55:08.487Z,9.27
2018-04-26T06:57:34.377Z,9.36
2018-04-26T07:00:00.442Z,9.45
2018-04-26T07:02:26.372Z,9.50
2018-04-26T07:04:52.254Z,9.45
2018-04-26T07:07:18.116Z,9.59
2018-04-26T07:09:44.054Z,9.52
2018-04-26T07:12:10.118Z,9.48
2018-04-26T07:14:36.095Z,9.46
2018-04-26T07:17:02.009Z,9.54
2018-04-26T07:19:33.376Z,9.73
2018-04-26T07:21:59.251Z,10.04
2018-04-26T07:24:25.673Z,10.44
2018-04-26T07:26:51.628Z,10.82
2018-04-26T07:29:17.494Z,11.06
2018-04-26T07:31:43.435Z,10.80
2018-04-26T07:34:09.339Z,10.98
2018-04-26T07:36:35.499Z,10.89
2018-04-26T07:39:01.477Z,10.90
2018-04-26T07:41:27.351Z,10.83
2018-04-26T07:43:53.305Z,11.15
2018-04-26T07:46:19.217Z,11.65
2018-04-26T07:48:45.279Z,11.86
2018-04-26T07:51:11.154Z,11.76
2018-04-26T07:53:37.140Z,11.62
2018-04-26T07:56:03.036Z,11.60
2018-04-26T07:58:28.907Z,11.90
2018-04-26T08:00:59.256Z,11.92
2018-04-26T08:03:25.125Z,12.01
2018-04-26T08:05:51.021Z,12.10
2018-04-26T08:08:16.932Z,12.13
2018-04-26T08:10:42.812Z,12.73
2018-04-26T08:13:08.829Z,12.87
2018-04-26T08:15:34.751Z,12.97
2018-04-26T08:18:00.789Z,13.30
2018-04-26T08:20:26.673Z,12.97
2018-04-26T08:22:52.681Z,12.87
2018-04-26T08:25:18.691Z,12.85
2018-04-26T08:27:46.591Z,13.07
2018-04-26T08:30:12.933Z,13.47
2018-04-26T08:32:38.840Z,14.01
2018-04-26T08:35:04.728Z,14.06
2018-04-26T08:37:30.791Z,13.97
2018-04-26T08:39:56.679Z,13.74
2018-04-26T08:42:22.559Z,13.37
2018-04-26T08:44:48.552Z,12.95
2018-04-26T08:47:14.440Z,12.02
2018-04-26T08:49:40.499Z,10.83
2018-04-26T08:52:06.432Z,10.31
2018-04-26T08:54:32.325Z,9.77
2018-04-26T08:56:58.221Z,9.70
2018-04-26T08:59:24.145Z,9.60
2018-04-26T09:01:50.205Z,9.62
2018-04-26T09:04:16.095Z,9.62
2018-04-26T09:06:42.081Z,9.71
2018-04-26T09:09:07.999Z,10.03
2018-04-26T09:11:33.888Z,10.40
2018-04-26T09:13:59.919Z,10.71
2018-04-26T09:16:25.797Z,10.91
2018-04-26T09:18:51.768Z,11.09
2018-04-26T09:21:17.738Z,10.94
2018-04-26T09:23:43.599Z,10.56
2018-04-26T09:26:09.652Z,10.36
2018-04-26T09:28:35.568Z,10.22
2018-04-26T09:31:01.448Z,10.28
2018-04-26T09:33:27.854Z,10.42
2018-04-26T09:35:53.887Z,10.55
2018-04-26T09:38:19.906Z,10.52
2018-04-26T09:40:46.105Z,10.53
2018-04-26T09:43:12.049Z,10.71
2018-04-26T09:45:37.940Z,10.82
2018-04-26T09:48:03.817Z,11.38
2018-04-26T09:50:29.871Z,11.40
2018-04-26T09:52:55.739Z,11.49
2018-04-26T09:55:21.639Z,11.31
2018-04-26T09:57:47.557Z,11.26
2018-04-26T10:00:13.456Z,11.39
2018-04-26T10:02:45.519Z,11.92
2018-04-26T10:05:11.452Z,11.76
2018-04-26T10:07:37.350Z,11.37
2018-04-26T10:10:03.251Z,11.37
2018-04-26T10:12:29.163Z,10.99
2018-04-26T10:14:55.179Z,10.80
2018-04-26T10:17:21.075Z,11.21
2018-04-26T10:19:50.908Z,11.61
2018-04-26T10:22:16.833Z,11.66
2018-04-26T10:24:42.768Z,11.91
2018-04-26T10:27:08.828Z,12.22
2018-04-26T10:29:34.719Z,12.70
2018-04-26T10:32:00.609Z,13.42
2018-04-26T10:34:26.543Z,13.47
2018-04-26T10:36:52.439Z,13.43
2018-04-26T10:39:18.478Z,14.27
2018-04-26T10:41:44.395Z,14.31
2018-04-26T10:44:10.294Z,13.72
2018-04-26T10:46:36.180Z,13.19
2018-04-26T10:49:02.149Z,13.24
2018-04-26T10:51:30.452Z,13.16
2018-04-26T10:53:56.347Z,12.72
2018-04-26T10:56:22.272Z,12.39
2018-04-26T10:58:48.500Z,12.18
2018-04-26T11:01:14.401Z,12.10
2018-04-26T11:03:40.803Z,12.17
2018-04-26T11:06:06.675Z,12.23
2018-04-26T11:08:32.557Z,12.19
2018-04-26T11:10:59.550Z,12.25
2018-04-26T11:13:25.443Z,12.07
2018-04-26T11:15:51.466Z,12.20
2018-04-26T11:18:17.529Z,12.71
2018-04-26T11:20:43.523Z,13.07
2018-04-26T11:23:09.501Z,12.98
2018-04-26T11:26:01.775Z,13.57
2018-04-26T11:28:29.145Z,14.03
2018-04-26T11:30:55.217Z,13.93
2018-04-26T11:33:21.155Z,13.55
2018-04-26T11:35:48.200Z,13.55
2018-04-26T11:38:14.454Z,13.62
2018-04-26T11:40:40.475Z,14.42
2018-04-26T11:43:06.356Z,14.32
2018-04-26T11:45:32.334Z,14.42
2018-04-26T11:47:58.231Z,14.90
2018-04-26T11:50:24.251Z,14.92
2018-04-26T11:52:50.448Z,15.71
2018-04-26T11:55:16.461Z,16.45
2018-04-26T11:57:42.425Z,16.75
2018-04-26T12:00:08.563Z,18.02
2018-04-26T12:02:34.871Z,17.73
2018-04-26T12:05:01.396Z,17.45
2018-04-26T12:07:27.767Z,16.92
2018-04-26T12:09:56.520Z,16.07
2018-04-26T12:12:31.184Z,15.51
2018-04-26T12:15:01.227Z,14.83
2018-04-26T12:17:27.160Z,14.84
2018-04-26T12:19:53.198Z,14.42
2018-04-26T12:22:19.144Z,14.52
2018-04-26T12:24:46.497Z,14.31
2018-04-26T12:27:12.884Z,15.06
2018-04-26T12:29:38.794Z,15.13
2018-04-26T12:32:04.691Z,14.96
2018-04-26T12:34:30.850Z,15.09
2018-04-26T12:36:56.740Z,14.99
2018-04-26T12:39:23.001Z,14.90
2018-04-26T12:41:49.396Z,14.91
2018-04-26T12:44:21.477Z,15.00
2018-04-26T12:46:47.420Z,14.81
2018-04-26T12:49:13.338Z,14.55
2018-04-26T12:51:40.059Z,14.36
2018-04-26T12:54:05.930Z,13.77
2018-04-26T12:56:31.877Z,12.35
2018-04-26T12:58:57.988Z,11.88
2018-04-26T13:01:23.893Z,11.85
2018-04-26T13:03:50.549Z,11.95
2018-04-26T13:06:16.428Z,12.04
2018-04-26T13:08:42.297Z,12.18
2018-04-26T13:11:08.584Z,12.16
2018-04-26T13:13:34.472Z,12.13
2018-04-26T13:16:01.202Z,12.23
2018-04-26T13:18:27.342Z,12.36
2018-04-26T13:20:53.224Z,12.65
2018-04-26T13:23:19.416Z,13.15
2018-04-26T13:25:45.353Z,13.55
2018-04-26T13:28:11.886Z,13.42
2018-04-26T13:30:37.786Z,13.44
2018-04-26T13:33:03.754Z,13.62
2018-04-26T13:35:30.065Z,13.83
2018-04-26T13:37:56.136Z,13.34
2018-04-26T13:40:22.543Z,13.26
2018-04-26T13:42:48.469Z,13.37
2018-04-26T13:45:14.371Z,13.47
2018-04-26T13:47:40.601Z,13.23
2018-04-26T13:50:06.510Z,13.12
2018-04-26T13:52:32.897Z,13.06
2018-04-26T13:55:00.237Z,12.47
2018-04-26T13:57:26.344Z,11.94
2018-04-26T13:59:55.820Z,12.02
2018-04-26T14:02:21.797Z,12.41
2018-04-26T14:04:47.849Z,12.96
2018-04-26T14:07:13.788Z,13.31
2018-04-26T14:09:39.711Z,13.51
2018-04-26T14:12:05.593Z,13.56
2018-04-26T14:14:31.838Z,13.75
2018-04-26T14:16:57.987Z,13.85
2018-04-26T14:19:26.532Z,14.09
2018-04-26T14:21:52.452Z,13.94
2018-04-26T14:24:18.433Z,14.02
2018-04-26T14:26:44.381Z,13.82
2018-04-26T14:29:10.435Z,13.82
2018-04-26T14:31:36.443Z,14.11
2018-04-26T14:34:02.324Z,14.43
2018-04-26T14:36:28.213Z,14.63
2018-04-26T14:38:55.199Z,14.89
2018-04-26T14:41:21.112Z,14.83
2018-04-26T14:43:47.014Z,14.64
2018-04-26T14:46:12.920Z,14.38
2018-04-26T14:48:38.818Z,14.06
2018-04-26T14:51:04.979Z,14.11
2018-04-26T14:53:30.898Z,14.61
2018-04-26T14:55:56.950Z,15.11
2018-04-26T14:58:22.861Z,15.39
2018-04-26T15:00:48.940Z,15.23
2018-04-26T15:03:14.811Z,15.00
2018-04-26T15:05:40.707Z,14.78
2018-04-26T15:08:07.016Z,14.48
2018-04-26T15:10:32.928Z,13.92
2018-04-26T15:12:58.840Z,13.68
2018-04-26T15:15:24.819Z,13.31
2018-04-26T15:17:51.803Z,12.47
2018-04-26T15:20:18.458Z,11.97
2018-04-26T15:22:44.396Z,11.35
2018-04-26T15:25:10.300Z,10.80
2018-04-26T15:27:36.330Z,10.24
2018-04-26T15:30:02.382Z,9.93
2018-04-26T15:32:28.245Z,9.88
2018-04-26T15:34:54.924Z,10.04
2018-04-26T15:37:20.889Z,10.09
2018-04-26T15:39:47.258Z,10.32
2018-04-26T15:42:13.262Z,10.28
2018-04-26T15:44:39.176Z,10.09
2018-04-26T15:47:05.116Z,10.12
2018-04-26T15:49:31.008Z,10.08
2018-04-26T15:51:57.155Z,10.09
2018-04-26T15:54:33.359Z,10.29
2018-04-26T15:57:32.239Z,10.74
2018-04-26T16:00:10.419Z,11.04
2018-04-26T16:09:18.331Z,11.28
2018-04-26T16:11:56.478Z,11.31
2018-04-26T16:14:34.988Z,11.42
2018-04-26T16:17:24.659Z,11.52
2018-04-26T16:20:09.058Z,11.46
2018-04-26T16:26:07.354Z,11.63
2018-04-26T16:28:52.446Z,11.48
2018-04-26T16:31:37.151Z,11.58
2018-04-26T16:34:15.395Z,11.56
2018-04-26T16:36:53.740Z,11.60
2018-04-26T16:39:19.692Z,11.60
2018-04-26T16:41:45.572Z,11.56
2018-04-26T16:44:12.330Z,11.50
2018-04-26T16:46:38.215Z,11.38
2018-04-26T16:49:04.227Z,11.33
2018-04-26T16:51:30.265Z,11.09
2018-04-26T16:53:56.179Z,10.96
2018-04-26T16:56:22.098Z,11.01
2018-04-26T16:58:48.042Z,10.89
2018-04-26T17:01:13.928Z,10.85
2018-04-26T17:03:39.905Z,10.94
2018-04-26T17:06:05.859Z,11.08
2018-04-26T17:08:31.742Z,11.22
2018-04-26T17:10:57.643Z,11.09
2018-04-26T17:13:23.576Z,10.98
2018-04-26T17:15:49.686Z,10.97
2018-04-26T17:18:15.574Z,10.91
2018-04-26T17:20:41.536Z,10.92
2018-04-26T17:23:07.403Z,10.84
2018-04-26T17:25:33.346Z,10.80
2018-04-26T17:27:59.437Z,10.77
2018-04-26T17:30:25.297Z,10.61
2018-04-26T17:32:51.193Z,10.56
2018-04-26T17:35:17.127Z,10.54
2018-04-26T17:37:43.002Z,10.50
